createdAt,value
2023-02-13T00:00:48.688Z,7.00
2023-02-13T00:03:17.453Z,7.21
2023-02-13T00:05:45.017Z,7.18
2023-02-13T00:08:12.381Z,7.05
2023-02-13T00:10:39.780Z,7.03
2023-02-13T00:13:07.173Z,7.05
2023-02-13T00:15:34.670Z,7.11
2023-02-13T00:18:03.400Z,7.02
2023-02-13T00:20:32.291Z,6.97
2023-02-13T00:23:00.276Z,6.88
2023-02-13T00:25:28.255Z,6.90
2023-02-13T00:27:55.535Z,6.87
2023-02-13T00:30:23.713Z,6.87
2023-02-13T00:32:51.086Z,6.81
2023-02-13T00:35:18.729Z,6.87
2023-02-13T00:37:47.426Z,7.01
2023-02-13T00:40:15.202Z,6.85
2023-02-13T00:42:42.587Z,6.82
2023-02-13T00:45:10.607Z,6.93
2023-02-13T00:47:37.866Z,6.84
2023-02-13T00:50:06.231Z,6.79
2023-02-13T00:52:33.655Z,6.82
2023-02-13T00:55:02.351Z,6.80
2023-02-13T00:57:31.748Z,6.99
2023-02-13T00:59:59.425Z,6.81
2023-02-13T01:02:26.893Z,6.71
2023-02-13T01:04:54.315Z,6.94
2023-02-13T01:07:21.739Z,6.78
2023-02-13T01:09:49.111Z,6.69
2023-02-13T01:12:17.817Z,6.68
2023-02-13T01:14:45.190Z,6.72
2023-02-13T01:17:12.561Z,6.87
2023-02-13T01:19:41.765Z,6.94
2023-02-13T01:22:09.293Z,6.95
2023-02-13T01:24:36.690Z,6.87
2023-02-13T01:27:04.065Z,6.98
2023-02-13T01:29:33.196Z,6.87
2023-02-13T01:32:02.489Z,6.96
2023-02-13T01:34:30.296Z,6.88
2023-02-13T01:36:57.669Z,6.82
2023-02-13T01:39:25.058Z,6.77
2023-02-13T01:41:52.488Z,6.78
2023-02-13T01:44:50.585Z,6.86
2023-02-13T01:47:25.279Z,6.81
2023-02-13T01:50:00.366Z,6.74
2023-02-13T01:52:28.109Z,6.75
2023-02-13T01:54:55.774Z,6.83
2023-02-13T01:57:26.888Z,6.87
2023-02-13T02:00:00.700Z,6.81
2023-02-13T02:02:32.595Z,6.77
2023-02-13T02:05:00.203Z,6.82
2023-02-13T02:07:29.918Z,6.93
2023-02-13T02:10:01.649Z,7.04
2023-02-13T02:12:37.133Z,6.85
2023-02-13T02:15:07.081Z,6.83
2023-02-13T02:17:34.713Z,6.83
2023-02-13T02:20:15.130Z,6.78
2023-02-13T02:23:15.375Z,6.79
2023-02-13T02:26:10.418Z,6.76
2023-02-13T02:28:57.659Z,6.73
2023-02-13T02:31:54.495Z,6.73
2023-02-13T02:34:29.442Z,6.73
2023-02-13T02:37:14.367Z,6.76
2023-02-13T02:39:53.653Z,6.73
2023-02-13T02:42:31.593Z,6.88
2023-02-13T02:45:06.548Z,6.90
2023-02-13T02:48:03.017Z,6.85
2023-02-13T02:50:45.301Z,6.75
2023-02-13T02:53:27.627Z,6.80
2023-02-13T02:56:00.052Z,6.93
2023-02-13T02:58:51.719Z,6.78
2023-02-13T03:01:40.026Z,6.92
2023-02-13T03:04:34.739Z,6.81
2023-02-13T03:07:06.405Z,6.74
2023-02-13T03:09:58.622Z,6.79
2023-02-13T03:12:48.557Z,6.69
2023-02-13T03:15:15.950Z,6.71
2023-02-13T03:18:01.890Z,6.67
2023-02-13T03:20:58.770Z,6.66
2023-02-13T03:23:40.547Z,6.62
2023-02-13T03:26:22.866Z,6.81
2023-02-13T03:29:15.128Z,6.82
2023-02-13T03:31:53.975Z,6.73
2023-02-13T03:34:24.091Z,6.75
2023-02-13T03:37:25.235Z,6.69
2023-02-13T03:40:01.399Z,6.67
2023-02-13T03:42:36.338Z,6.67
2023-02-13T03:45:23.978Z,6.71
2023-02-13T03:47:55.079Z,6.70
2023-02-13T03:50:22.435Z,6.85
2023-02-13T03:52:54.635Z,6.72
2023-02-13T03:55:42.618Z,6.78
2023-02-13T03:58:32.279Z,6.74
2023-02-13T04:01:04.935Z,6.74
2023-02-13T04:03:39.060Z,6.88
2023-02-13T04:06:12.144Z,6.84
2023-02-13T04:08:41.045Z,6.77
2023-02-13T04:11:14.847Z,6.78
2023-02-13T04:13:47.701Z,6.73
2023-02-13T04:16:20.945Z,6.90
2023-02-13T04:18:50.508Z,6.82
2023-02-13T04:21:17.925Z,6.80
2023-02-13T04:23:46.606Z,6.81
2023-02-13T04:26:18.287Z,6.84
2023-02-13T04:28:45.975Z,6.79
2023-02-13T04:31:13.676Z,6.82
2023-02-13T04:33:45.090Z,6.88
2023-02-13T04:36:12.521Z,6.88
2023-02-13T04:38:39.892Z,6.89
2023-02-13T04:41:08.632Z,6.96
2023-02-13T04:43:36.195Z,6.98
2023-02-13T04:46:04.269Z,6.96
2023-02-13T04:48:31.852Z,6.90
2023-02-13T04:50:59.502Z,6.90
2023-02-13T04:53:27.024Z,6.97
2023-02-13T04:55:54.637Z,6.92
2023-02-13T04:58:23.320Z,6.92
2023-02-13T05:00:50.686Z,6.90
2023-02-13T05:03:18.147Z,6.80
2023-02-13T05:05:45.739Z,6.92
2023-02-13T05:08:13.170Z,6.78
2023-02-13T05:10:40.543Z,6.85
2023-02-13T05:13:07.929Z,6.81
2023-02-13T05:15:36.960Z,6.83
2023-02-13T05:18:04.481Z,6.80
2023-02-13T05:20:31.847Z,6.91
2023-02-13T05:23:17.758Z,6.88
2023-02-13T05:25:45.120Z,6.89
2023-02-13T05:28:26.537Z,6.82
2023-02-13T05:30:55.442Z,6.77
2023-02-13T05:33:23.109Z,6.94
2023-02-13T05:35:50.495Z,6.85
2023-02-13T05:38:17.906Z,6.92
2023-02-13T05:40:45.417Z,6.94
2023-02-13T05:43:12.819Z,6.87
2023-02-13T05:45:40.157Z,6.90
2023-02-13T05:48:08.874Z,6.94
2023-02-13T05:50:36.661Z,6.79
2023-02-13T05:53:04.036Z,6.84
2023-02-13T05:55:31.418Z,6.76
2023-02-13T05:57:59.209Z,6.75
2023-02-13T06:00:26.639Z,6.64
2023-02-13T06:02:54.058Z,6.69
2023-02-13T06:05:22.758Z,6.68
2023-02-13T06:07:50.122Z,6.83
2023-02-13T06:10:17.717Z,6.78
2023-02-13T06:12:45.081Z,6.83
2023-02-13T06:15:12.472Z,6.81
2023-02-13T06:17:39.867Z,6.85
2023-02-13T06:20:08.758Z,6.90
2023-02-13T06:22:37.469Z,6.82
2023-02-13T06:25:05.827Z,6.83
2023-02-13T06:27:33.245Z,6.81
2023-02-13T06:30:00.626Z,6.78
2023-02-13T06:32:28.021Z,6.85
2023-02-13T06:34:55.377Z,6.90
2023-02-13T06:37:22.864Z,6.85
2023-02-13T06:39:51.617Z,6.86
2023-02-13T06:42:19.378Z,6.95
2023-02-13T06:44:46.766Z,6.89
2023-02-13T06:47:14.197Z,6.96
2023-02-13T06:49:41.585Z,6.94
2023-02-13T06:52:09.093Z,6.77
2023-02-13T06:54:46.840Z,6.85
2023-02-13T06:57:17.069Z,6.88
2023-02-13T06:59:44.580Z,6.85
2023-02-13T07:02:12.102Z,6.90
2023-02-13T07:04:39.743Z,6.97
2023-02-13T07:07:07.341Z,6.89
2023-02-13T07:09:34.799Z,6.88
2023-02-13T07:12:04.369Z,6.85
2023-02-13T07:14:33.085Z,6.97
2023-02-13T07:17:00.537Z,6.98
2023-02-13T07:19:27.920Z,7.05
2023-02-13T07:21:55.311Z,7.12
2023-02-13T07:24:22.722Z,7.02
2023-02-13T07:26:50.091Z,6.87
2023-02-13T07:29:17.483Z,6.95
2023-02-13T07:31:46.203Z,6.92
2023-02-13T07:34:13.604Z,6.87
2023-02-13T07:36:40.958Z,6.84
2023-02-13T07:39:08.624Z,7.04
2023-02-13T07:41:36.032Z,6.99
2023-02-13T07:44:03.534Z,7.07
2023-02-13T07:46:30.965Z,6.90
2023-02-13T07:48:59.693Z,7.00
2023-02-13T07:51:29.026Z,7.00
2023-02-13T07:53:57.685Z,7.03
2023-02-13T07:56:25.299Z,7.04
2023-02-13T07:58:52.669Z,7.05
2023-02-13T08:01:20.452Z,6.93
2023-02-13T08:03:50.712Z,6.95
2023-02-13T08:06:20.183Z,7.05
2023-02-13T08:08:47.905Z,6.99
2023-02-13T08:11:42.909Z,7.23
2023-02-13T08:14:10.352Z,7.19
2023-02-13T08:16:37.770Z,7.20
2023-02-13T08:19:05.191Z,7.30
2023-02-13T08:21:35.179Z,7.16
2023-02-13T08:24:02.555Z,7.16
2023-02-13T08:26:31.868Z,7.18
2023-02-13T08:28:59.719Z,7.25
2023-02-13T08:31:27.794Z,7.26
2023-02-13T08:33:56.853Z,7.30
2023-02-13T08:36:24.738Z,7.38
2023-02-13T08:38:53.492Z,7.23
2023-02-13T08:41:22.102Z,7.38
2023-02-13T08:43:49.798Z,7.26
2023-02-13T08:46:17.581Z,7.37
2023-02-13T08:48:45.213Z,7.25
2023-02-13T08:51:14.750Z,7.38
2023-02-13T08:53:42.838Z,7.30
2023-02-13T08:56:11.849Z,7.23
2023-02-13T08:58:39.366Z,7.33
2023-02-13T09:01:07.904Z,7.44
2023-02-13T09:03:35.954Z,7.58
2023-02-13T09:06:03.993Z,7.45
2023-02-13T09:08:31.338Z,7.48
2023-02-13T09:11:01.186Z,7.54
2023-02-13T09:13:32.934Z,7.44
2023-02-13T09:16:01.372Z,7.29
2023-02-13T09:18:29.173Z,7.43
2023-02-13T09:21:01.594Z,7.47
2023-02-13T09:23:32.345Z,7.36
2023-02-13T09:26:00.941Z,7.58
2023-02-13T09:28:30.723Z,7.65
2023-02-13T09:30:58.453Z,7.86
2023-02-13T09:33:26.529Z,7.94
2023-02-13T09:35:54.013Z,7.80
2023-02-13T09:38:21.380Z,7.81
2023-02-13T09:40:53.612Z,7.91
2023-02-13T09:43:31.733Z,7.71
2023-02-13T09:46:02.634Z,7.80
2023-02-13T09:48:32.028Z,7.92
2023-02-13T09:51:00.353Z,8.16
2023-02-13T09:53:33.320Z,8.06
2023-02-13T09:56:10.244Z,8.08
2023-02-13T09:58:45.582Z,8.14
2023-02-13T10:01:21.837Z,8.21
2023-02-13T10:03:58.121Z,8.34
2023-02-13T10:06:31.604Z,8.47
2023-02-13T10:09:11.095Z,8.51
2023-02-13T10:11:54.272Z,8.51
2023-02-13T10:14:32.772Z,8.57
2023-02-13T10:17:06.352Z,8.62
2023-02-13T10:19:38.935Z,8.49
2023-02-13T10:22:11.282Z,8.60
2023-02-13T10:24:42.567Z,8.54
2023-02-13T10:27:20.847Z,8.57
2023-02-13T10:30:06.752Z,8.61
2023-02-13T10:32:43.931Z,8.75
2023-02-13T10:35:21.907Z,8.81
2023-02-13T10:37:52.643Z,8.75
2023-02-13T10:40:20.759Z,8.88
2023-02-13T10:42:55.662Z,8.74
2023-02-13T10:45:40.153Z,8.80
2023-02-13T10:48:19.138Z,9.03
2023-02-13T10:50:57.151Z,9.18
2023-02-13T10:53:41.359Z,8.99
2023-02-13T10:56:24.534Z,8.97
2023-02-13T10:59:02.481Z,8.92
2023-02-13T11:01:34.482Z,8.95
2023-02-13T11:04:07.148Z,9.13
2023-02-13T11:06:37.739Z,8.95
2023-02-13T11:09:07.056Z,8.84
2023-02-13T11:11:36.977Z,8.75
2023-02-13T11:14:10.837Z,8.74
2023-02-13T11:16:49.403Z,8.81
2023-02-13T11:19:23.059Z,8.87
2023-02-13T11:21:55.708Z,8.74
2023-02-13T11:24:25.115Z,8.67
2023-02-13T11:26:55.628Z,8.55
2023-02-13T11:29:27.492Z,8.63
2023-02-13T11:32:20.436Z,8.44
2023-02-13T11:34:50.577Z,8.68
2023-02-13T11:37:27.924Z,8.50
2023-02-13T11:39:57.721Z,8.47
2023-02-13T11:42:31.534Z,8.61
2023-02-13T11:45:05.014Z,8.49
2023-02-13T11:47:38.057Z,8.63
2023-02-13T11:50:07.302Z,8.46
2023-02-13T11:52:37.055Z,8.49
2023-02-13T11:55:07.572Z,8.53
2023-02-13T11:57:37.534Z,8.57
2023-02-13T12:00:30.819Z,8.47
2023-02-13T12:02:59.725Z,8.70
2023-02-13T12:05:28.830Z,8.82
2023-02-13T12:08:00.631Z,8.71
2023-02-13T12:10:29.804Z,9.03
2023-02-13T12:13:00.144Z,8.92
2023-02-13T12:15:30.988Z,8.92
2023-02-13T12:18:07.634Z,8.96
2023-02-13T12:20:43.600Z,9.01
2023-02-13T12:23:23.520Z,9.13
2023-02-13T12:26:14.658Z,9.10
2023-02-13T12:28:57.881Z,8.94
2023-02-13T12:31:37.697Z,9.02
2023-02-13T12:34:31.944Z,9.20
2023-02-13T12:37:10.634Z,9.18
2023-02-13T12:39:42.313Z,9.23
2023-02-13T12:42:23.054Z,9.30
2023-02-13T12:45:12.635Z,9.25
2023-02-13T12:47:53.505Z,9.39
2023-02-13T12:50:39.341Z,9.14
2023-02-13T12:53:24.120Z,9.22
2023-02-13T12:56:05.808Z,9.35
2023-02-13T12:58:48.003Z,9.48
2023-02-13T13:01:25.658Z,9.30
2023-02-13T13:04:08.767Z,9.33
2023-02-13T13:06:58.323Z,9.31
2023-02-13T13:09:57.539Z,9.24
2023-02-13T13:12:34.761Z,9.37
2023-02-13T13:15:09.491Z,9.25
2023-02-13T13:17:48.946Z,9.22
2023-02-13T13:20:35.634Z,9.21
2023-02-13T13:23:09.904Z,9.33
2023-02-13T13:25:44.470Z,9.28
2023-02-13T13:28:16.797Z,9.29
2023-02-13T13:30:44.937Z,9.33
2023-02-13T13:33:17.043Z,9.17
2023-02-13T13:35:54.175Z,9.17
2023-02-13T13:38:34.255Z,9.14
2023-02-13T13:41:09.473Z,9.09
2023-02-13T13:43:45.268Z,9.04
2023-02-13T13:46:18.774Z,8.69
2023-02-13T13:48:59.887Z,8.89
2023-02-13T13:51:27.577Z,8.85
2023-02-13T13:54:35.290Z,8.82
2023-02-13T13:57:11.507Z,8.95
2023-02-13T14:00:28.012Z,8.71
2023-02-13T14:03:23.348Z,8.74
2023-02-13T14:06:04.084Z,8.68
2023-02-13T14:09:07.065Z,8.67
2023-02-13T14:11:47.229Z,8.56
2023-02-13T14:14:52.463Z,8.47
2023-02-13T14:17:54.588Z,8.35
2023-02-13T14:20:29.679Z,8.56
2023-02-13T14:22:57.735Z,8.46
2023-02-13T14:25:26.016Z,8.57
2023-02-13T14:28:00.554Z,8.54
2023-02-13T14:30:30.780Z,8.64
2023-02-13T14:33:01.390Z,8.37
2023-02-13T14:35:32.124Z,8.41
2023-02-13T14:38:02.315Z,8.21
2023-02-13T14:40:34.358Z,8.22
2023-02-13T14:43:22.909Z,8.46
2023-02-13T14:45:54.524Z,8.54
2023-02-13T14:48:26.371Z,8.31
2023-02-13T14:50:56.910Z,8.31
2023-02-13T14:53:28.046Z,8.22
2023-02-13T14:55:59.960Z,8.22
2023-02-13T14:58:32.420Z,8.14
2023-02-13T15:01:07.665Z,7.91
2023-02-13T15:03:42.050Z,7.93
2023-02-13T15:06:15.226Z,7.99
2023-02-13T15:08:49.065Z,8.09
2023-02-13T15:11:38.254Z,8.07
2023-02-13T15:14:25.637Z,7.86
2023-02-13T15:16:56.759Z,8.01
2023-02-13T15:19:25.622Z,7.86
2023-02-13T15:21:56.263Z,7.80
2023-02-13T15:24:24.932Z,7.64
2023-02-13T15:27:02.430Z,7.76
2023-02-13T15:29:44.232Z,7.58
2023-02-13T15:32:20.091Z,7.61
2023-02-13T15:34:48.203Z,7.62
2023-02-13T15:37:21.443Z,7.77
2023-02-13T15:39:48.858Z,7.76
2023-02-13T15:42:16.360Z,7.80
2023-02-13T15:44:48.242Z,7.66
2023-02-13T15:47:19.037Z,7.66
2023-02-13T15:49:50.279Z,7.53
2023-02-13T15:52:21.149Z,7.61
2023-02-13T15:54:50.707Z,7.45
2023-02-13T15:57:19.368Z,7.49
2023-02-13T15:59:48.835Z,7.69
2023-02-13T16:02:20.983Z,7.57
2023-02-13T16:04:51.362Z,7.55
2023-02-13T16:07:19.108Z,7.51
2023-02-13T16:09:47.213Z,7.52
2023-02-13T16:12:19.363Z,7.39
2023-02-13T16:14:54.087Z,7.50
2023-02-13T16:17:28.812Z,7.47
2023-02-13T16:20:00.407Z,7.39
2023-02-13T16:22:35.011Z,7.40
2023-02-13T16:25:11.237Z,7.24
2023-02-13T16:27:44.270Z,7.40
2023-02-13T16:30:29.692Z,7.37
2023-02-13T16:33:22.664Z,7.40
2023-02-13T16:35:51.318Z,7.08
2023-02-13T16:38:27.136Z,7.07
2023-02-13T16:40:56.065Z,7.20
2023-02-13T16:43:45.928Z,7.22
2023-02-13T16:46:20.500Z,7.18
2023-02-13T16:48:58.952Z,7.18
2023-02-13T16:51:32.140Z,7.22
2023-02-13T16:54:01.835Z,7.13
2023-02-13T16:56:37.259Z,6.98
2023-02-13T16:59:23.949Z,7.12
2023-02-13T17:02:15.299Z,7.08
2023-02-13T17:04:44.705Z,7.07
2023-02-13T17:07:21.185Z,7.14
2023-02-13T17:09:54.852Z,7.21
2023-02-13T17:12:22.899Z,7.13
2023-02-13T17:14:50.201Z,7.04
2023-02-13T17:17:20.640Z,7.11
2023-02-13T17:19:48.986Z,7.04
2023-02-13T17:22:26.779Z,7.20
2023-02-13T17:24:54.171Z,7.05
2023-02-13T17:27:22.834Z,6.86
2023-02-13T17:29:50.316Z,6.82
2023-02-13T17:32:22.126Z,6.98
2023-02-13T17:34:49.985Z,6.95
2023-02-13T17:40:16.903Z,6.96
2023-02-13T17:42:45.792Z,6.89
2023-02-13T17:45:15.926Z,7.04
2023-02-13T17:47:45.347Z,7.03
2023-02-13T17:50:14.114Z,6.87
2023-02-13T17:52:45.557Z,6.89
2023-02-13T17:55:17.383Z,6.79
2023-02-13T17:57:45.028Z,6.89
2023-02-13T18:00:12.998Z,7.02
2023-02-13T18:02:42.422Z,6.86
2023-02-13T18:05:12.014Z,6.91
2023-02-13T18:07:41.384Z,6.76
2023-02-13T18:10:12.131Z,6.94
2023-02-13T18:12:40.485Z,6.92
2023-02-13T18:15:08.646Z,6.91
2023-02-13T18:17:36.057Z,6.82
2023-02-13T18:20:03.890Z,6.81
2023-02-13T18:22:32.582Z,6.78
2023-02-13T18:25:01.975Z,6.94
2023-02-13T18:27:29.801Z,7.01
2023-02-13T18:29:57.910Z,7.04
2023-02-13T18:32:25.544Z,7.00
2023-02-13T18:34:52.947Z,7.05
2023-02-13T18:37:21.014Z,7.07
2023-02-13T18:39:49.625Z,6.98
2023-02-13T18:42:18.681Z,6.97
2023-02-13T18:44:46.061Z,7.10
2023-02-13T18:47:13.490Z,7.15
2023-02-13T18:49:40.923Z,6.93
2023-02-13T18:52:08.465Z,6.87
2023-02-13T18:54:37.112Z,6.78
2023-02-13T18:57:06.043Z,6.81
2023-02-13T18:59:33.422Z,6.82
2023-02-13T19:02:03.159Z,6.80
2023-02-13T19:04:32.284Z,6.70
2023-02-13T19:06:59.667Z,6.59
2023-02-13T19:09:27.190Z,6.54
2023-02-13T19:11:54.562Z,6.63
2023-02-13T19:14:25.158Z,6.69
2023-02-13T19:16:53.183Z,6.76
2023-02-13T19:19:20.559Z,6.84
2023-02-13T19:21:47.921Z,6.76
2023-02-13T19:24:15.601Z,6.87
2023-02-13T19:26:43.570Z,6.78
2023-02-13T19:29:11.278Z,6.78
2023-02-13T19:31:40.155Z,6.87
2023-02-13T19:34:07.660Z,6.97
2023-02-13T19:36:35.100Z,6.81
2023-02-13T19:39:04.991Z,6.91
2023-02-13T19:41:33.442Z,6.78
2023-02-13T19:44:01.137Z,6.94
2023-02-13T19:46:30.569Z,6.79
2023-02-13T19:48:59.807Z,6.94
2023-02-13T19:51:28.474Z,7.02
2023-02-13T19:53:57.380Z,7.00
2023-02-13T19:56:27.209Z,6.97
2023-02-13T19:58:54.724Z,6.99
2023-02-13T20:01:24.246Z,7.01
2023-02-13T20:03:52.132Z,6.95
2023-02-13T20:06:22.642Z,7.11
2023-02-13T20:08:50.932Z,6.94
2023-02-13T20:11:19.849Z,6.82
2023-02-13T20:13:47.579Z,6.94
2023-02-13T20:16:17.312Z,6.80
2023-02-13T20:18:44.956Z,6.94
2023-02-13T20:21:15.456Z,6.92
2023-02-13T20:23:49.094Z,6.94
2023-02-13T20:26:17.268Z,7.00
2023-02-13T20:28:46.376Z,6.92
2023-02-13T20:31:16.215Z,6.94
2023-02-13T20:33:44.402Z,6.89
2023-02-13T20:36:12.455Z,6.82
2023-02-13T20:38:39.729Z,6.63
2023-02-13T20:41:11.992Z,6.82
2023-02-13T20:43:39.474Z,6.82
2023-02-13T20:46:07.466Z,6.83
2023-02-13T20:48:35.640Z,6.86
2023-02-13T20:51:03.698Z,6.84
2023-02-13T20:53:31.660Z,6.83
2023-02-13T20:56:02.138Z,6.84
2023-02-13T20:58:31.402Z,6.87
2023-02-13T21:00:59.038Z,6.87
2023-02-13T21:03:26.947Z,6.85
2023-02-13T21:05:54.329Z,6.83
2023-02-13T21:08:21.593Z,6.80
2023-02-13T21:10:48.844Z,6.85
2023-02-13T21:13:16.117Z,6.85
2023-02-13T21:15:51.455Z,6.87
2023-02-13T21:18:21.042Z,6.86
2023-02-13T21:20:48.666Z,6.83
2023-02-13T21:23:15.933Z,6.84
2023-02-13T21:25:43.340Z,6.76
2023-02-13T21:28:10.602Z,6.77
2023-02-13T21:30:38.064Z,6.78
2023-02-13T21:33:06.774Z,6.78
2023-02-13T21:35:34.267Z,6.80
2023-02-13T21:38:01.583Z,6.80
2023-02-13T21:40:28.874Z,6.78
2023-02-13T21:42:56.117Z,6.87
2023-02-13T21:45:23.373Z,6.93
2023-02-13T21:47:50.631Z,6.94
2023-02-13T21:50:19.248Z,6.96
2023-02-13T21:52:46.664Z,6.95
2023-02-13T21:55:13.975Z,6.94
2023-02-13T21:57:41.237Z,6.90
2023-02-13T22:00:10.450Z,6.77
2023-02-13T22:02:38.498Z,6.93
2023-02-13T22:05:06.110Z,6.95
2023-02-13T22:07:55.702Z,6.88
2023-02-13T22:10:22.957Z,6.92
2023-02-13T22:12:53.854Z,6.90
2023-02-13T22:15:21.533Z,6.84
2023-02-13T22:17:48.785Z,6.82
2023-02-13T22:20:16.381Z,6.82
2023-02-13T22:22:45.035Z,6.89
2023-02-13T22:25:12.306Z,6.79
2023-02-13T22:27:39.591Z,6.78
2023-02-13T22:30:07.640Z,6.77
2023-02-13T22:32:34.969Z,6.78
2023-02-13T22:35:02.241Z,6.80
2023-02-13T22:37:29.509Z,6.83
2023-02-13T22:39:58.115Z,6.78
2023-02-13T22:42:25.406Z,6.85
2023-02-13T22:44:52.667Z,6.83
2023-02-13T22:47:19.938Z,6.76
2023-02-13T22:49:47.203Z,6.74
2023-02-13T22:52:14.481Z,6.75
2023-02-13T22:54:41.756Z,6.67
2023-02-13T22:57:10.664Z,6.67
2023-02-13T22:59:40.132Z,6.66
2023-02-13T23:02:07.750Z,6.71
2023-02-13T23:04:35.044Z,6.72
2023-02-13T23:07:02.344Z,6.69
2023-02-13T23:09:29.620Z,6.71
2023-02-13T23:12:14.702Z,6.68
2023-02-13T23:14:43.484Z,6.64
2023-02-13T23:17:28.625Z,6.44
2023-02-13T23:19:55.892Z,6.48
2023-02-13T23:22:23.175Z,6.52
2023-02-13T23:24:50.474Z,6.42
2023-02-13T23:27:17.748Z,6.41
2023-02-13T23:29:46.328Z,6.44
2023-02-13T23:32:13.751Z,6.51
2023-02-13T23:34:41.116Z,6.54
2023-02-13T23:37:08.394Z,6.56
2023-02-13T23:39:35.685Z,6.53
2023-02-13T23:42:02.964Z,6.57
2023-02-13T23:44:30.231Z,6.57
2023-02-13T23:46:58.838Z,6.41
2023-02-13T23:49:26.094Z,6.45
2023-02-13T23:51:53.370Z,6.44
2023-02-13T23:54:21.578Z,6.46
2023-02-13T23:56:50.066Z,6.51
2023-02-13T23:59:17.924Z,6.56
